sensor_id;sensor_type;location;lat;lon;timestamp;temperature;humidity
21580;DHT22;10951;59.656;9.666;2023-04-24T00:00:05;5.60;99.90
21580;DHT22;10951;59.656;9.666;2023-04-24T00:02:32;5.60;99.90
21580;DHT22;10951;59.656;9.666;2023-04-24T00:04:59;5.50;99.90
21580;DHT22;10951;59.656;9.666;2023-04-24T00:07:29;5.50;99.90
21580;DHT22;10951;59.656;9.666;2023-04-24T00:09:56;5.40;99.90
21580;DHT22;10951;59.656;9.666;2023-04-24T00:12:24;5.40;99.90
21580;DHT22;10951;59.656;9.666;2023-04-24T00:14:51;5.40;99.90
21580;DHT22;10951;59.656;9.666;2023-04-24T00:17:18;5.30;99.90
21580;DHT22;10951;59.656;9.666;2023-04-24T00:19:48;5.30;99.90
21580;DHT22;10951;59.656;9.666;2023-04-24T00:22:15;5.30;99.90
21580;DHT22;10951;59.656;9.666;2023-04-24T00:24:41;5.30;99.90
21580;DHT22;10951;59.656;9.666;2023-04-24T00:27:08;5.30;99.90
21580;DHT22;10951;59.656;9.666;2023-04-24T00:29:35;5.20;99.90
21580;DHT22;10951;59.656;9.666;2023-04-24T00:32:02;5.20;99.90
21580;DHT22;10951;59.656;9.666;2023-04-24T00:34:29;5.20;99.90
21580;DHT22;10951;59.656;9.666;2023-04-24T00:36:56;5.20;99.90
21580;DHT22;10951;59.656;9.666;2023-04-24T00:39:23;5.20;99.90
21580;DHT22;10951;59.656;9.666;2023-04-24T00:41:50;5.20;99.90
21580;DHT22;10951;59.656;9.666;2023-04-24T00:44:17;5.20;99.90
21580;DHT22;10951;59.656;9.666;2023-04-24T00:46:44;5.20;99.90
21580;DHT22;10951;59.656;9.666;2023-04-24T00:49:12;5.20;99.90
21580;DHT22;10951;59.656;9.666;2023-04-24T00:51:40;5.20;99.90
21580;DHT22;10951;59.656;9.666;2023-04-24T00:54:07;5.10;99.90
21580;DHT22;10951;59.656;9.666;2023-04-24T00:56:34;5.20;99.90
21580;DHT22;10951;59.656;9.666;2023-04-24T00:59:01;5.20;99.90
21580;DHT22;10951;59.656;9.666;2023-04-24T01:01:28;5.20;99.90
21580;DHT22;10951;59.656;9.666;2023-04-24T01:03:55;5.20;99.90
21580;DHT22;10951;59.656;9.666;2023-04-24T01:06:23;5.20;99.90
21580;DHT22;10951;59.656;9.666;2023-04-24T01:08:53;5.20;99.90
21580;DHT22;10951;59.656;9.666;2023-04-24T01:11:21;5.10;99.90
21580;DHT22;10951;59.656;9.666;2023-04-24T01:13:48;5.10;99.90
21580;DHT22;10951;59.656;9.666;2023-04-24T01:16:15;5.20;99.90
21580;DHT22;10951;59.656;9.666;2023-04-24T01:18:44;5.20;99.90
21580;DHT22;10951;59.656;9.666;2023-04-24T01:21:15;5.20;99.90
21580;DHT22;10951;59.656;9.666;2023-04-24T01:23:45;5.10;99.90
21580;DHT22;10951;59.656;9.666;2023-04-24T01:26:14;5.10;99.90
21580;DHT22;10951;59.656;9.666;2023-04-24T01:28:41;5.10;99.90
21580;DHT22;10951;59.656;9.666;2023-04-24T01:31:08;5.10;99.90
21580;DHT22;10951;59.656;9.666;2023-04-24T01:33:35;5.00;99.90
21580;DHT22;10951;59.656;9.666;2023-04-24T01:36:02;5.00;99.90
21580;DHT22;10951;59.656;9.666;2023-04-24T01:38:29;5.00;99.90
21580;DHT22;10951;59.656;9.666;2023-04-24T01:40:58;5.00;99.90
21580;DHT22;10951;59.656;9.666;2023-04-24T01:43:25;4.90;99.90
21580;DHT22;10951;59.656;9.666;2023-04-24T01:45:53;4.90;99.90
21580;DHT22;10951;59.656;9.666;2023-04-24T01:48:19;4.90;99.90
21580;DHT22;10951;59.656;9.666;2023-04-24T01:50:46;4.90;99.90
21580;DHT22;10951;59.656;9.666;2023-04-24T01:53:13;4.90;99.90
21580;DHT22;10951;59.656;9.666;2023-04-24T01:55:41;4.90;99.90
21580;DHT22;10951;59.656;9.666;2023-04-24T01:58:08;4.90;99.90
21580;DHT22;10951;59.656;9.666;2023-04-24T02:00:35;4.90;99.90
21580;DHT22;10951;59.656;9.666;2023-04-24T02:03:02;4.80;99.90
21580;DHT22;10951;59.656;9.666;2023-04-24T02:05:29;4.90;99.90
21580;DHT22;10951;59.656;9.666;2023-04-24T02:07:56;4.90;99.90
21580;DHT22;10951;59.656;9.666;2023-04-24T02:10:22;4.90;99.90
21580;DHT22;10951;59.656;9.666;2023-04-24T02:12:49;4.90;99.90
21580;DHT22;10951;59.656;9.666;2023-04-24T02:15:16;4.90;99.90
21580;DHT22;10951;59.656;9.666;2023-04-24T02:17:44;4.90;99.90
21580;DHT22;10951;59.656;9.666;2023-04-24T02:20:11;4.80;99.90
21580;DHT22;10951;59.656;9.666;2023-04-24T02:22:38;4.80;99.90
21580;DHT22;10951;59.656;9.666;2023-04-24T02:25:05;4.80;99.90
21580;DHT22;10951;59.656;9.666;2023-04-24T02:27:32;4.80;99.90
21580;DHT22;10951;59.656;9.666;2023-04-24T02:29:59;4.80;99.90
21580;DHT22;10951;59.656;9.666;2023-04-24T02:32:26;4.80;99.90
21580;DHT22;10951;59.656;9.666;2023-04-24T02:34:53;4.80;99.90
21580;DHT22;10951;59.656;9.666;2023-04-24T02:37:20;4.80;99.90
21580;DHT22;10951;59.656;9.666;2023-04-24T02:39:47;4.80;99.90
21580;DHT22;10951;59.656;9.666;2023-04-24T02:42:14;4.80;99.90
21580;DHT22;10951;59.656;9.666;2023-04-24T02:44:40;4.90;99.90
21580;DHT22;10951;59.656;9.666;2023-04-24T02:47:07;4.80;99.90
21580;DHT22;10951;59.656;9.666;2023-04-24T02:49:35;4.80;99.90
21580;DHT22;10951;59.656;9.666;2023-04-24T02:52:02;4.80;99.90
21580;DHT22;10951;59.656;9.666;2023-04-24T02:54:29;4.80;99.90
21580;DHT22;10951;59.656;9.666;2023-04-24T02:56:56;4.80;99.90
21580;DHT22;10951;59.656;9.666;2023-04-24T02:59:23;4.80;99.90
21580;DHT22;10951;59.656;9.666;2023-04-24T03:01:50;4.80;99.90
21580;DHT22;10951;59.656;9.666;2023-04-24T03:04:17;4.90;99.90
21580;DHT22;10951;59.656;9.666;2023-04-24T03:06:47;4.90;99.90
21580;DHT22;10951;59.656;9.666;2023-04-24T03:09:14;4.90;99.90
21580;DHT22;10951;59.656;9.666;2023-04-24T03:11:41;4.90;99.90
21580;DHT22;10951;59.656;9.666;2023-04-24T03:14:08;4.90;99.90
21580;DHT22;10951;59.656;9.666;2023-04-24T03:16:37;4.90;99.90
21580;DHT22;10951;59.656;9.666;2023-04-24T03:19:06;4.90;99.90
21580;DHT22;10951;59.656;9.666;2023-04-24T03:21:38;4.90;99.90
21580;DHT22;10951;59.656;9.666;2023-04-24T03:24:07;4.90;99.90
21580;DHT22;10951;59.656;9.666;2023-04-24T03:26:35;4.90;99.90
21580;DHT22;10951;59.656;9.666;2023-04-24T03:29:21;4.90;99.90
21580;DHT22;10951;59.656;9.666;2023-04-24T03:31:48;4.90;99.90
21580;DHT22;10951;59.656;9.666;2023-04-24T03:34:15;4.80;99.90
21580;DHT22;10951;59.656;9.666;2023-04-24T03:36:42;4.80;99.90
21580;DHT22;10951;59.656;9.666;2023-04-24T03:39:09;4.80;99.90
21580;DHT22;10951;59.656;9.666;2023-04-24T03:41:41;4.80;99.90
21580;DHT22;10951;59.656;9.666;2023-04-24T03:44:18;4.70;99.90
21580;DHT22;10951;59.656;9.666;2023-04-24T03:46:45;4.70;99.90
21580;DHT22;10951;59.656;9.666;2023-04-24T03:49:12;4.70;99.90
21580;DHT22;10951;59.656;9.666;2023-04-24T03:51:42;4.70;99.90
21580;DHT22;10951;59.656;9.666;2023-04-24T03:54:21;4.60;99.90
21580;DHT22;10951;59.656;9.666;2023-04-24T03:56:50;4.60;99.90
21580;DHT22;10951;59.656;9.666;2023-04-24T03:59:17;4.60;99.90
21580;DHT22;10951;59.656;9.666;2023-04-24T04:01:49;4.60;99.90
21580;DHT22;10951;59.656;9.666;2023-04-24T04:04:16;4.50;99.90
21580;DHT22;10951;59.656;9.666;2023-04-24T04:06:44;4.50;99.90
21580;DHT22;10951;59.656;9.666;2023-04-24T04:09:13;4.60;99.90
21580;DHT22;10951;59.656;9.666;2023-04-24T04:11:40;4.50;99.90
21580;DHT22;10951;59.656;9.666;2023-04-24T04:14:07;4.60;99.90
21580;DHT22;10951;59.656;9.666;2023-04-24T04:16:37;4.70;99.90
21580;DHT22;10951;59.656;9.666;2023-04-24T04:19:05;4.70;99.90
21580;DHT22;10951;59.656;9.666;2023-04-24T04:21:32;4.70;99.90
21580;DHT22;10951;59.656;9.666;2023-04-24T04:24:21;4.70;99.90
21580;DHT22;10951;59.656;9.666;2023-04-24T04:26:49;4.70;99.90
21580;DHT22;10951;59.656;9.666;2023-04-24T04:29:23;4.70;99.90
21580;DHT22;10951;59.656;9.666;2023-04-24T04:31:51;4.80;99.90
21580;DHT22;10951;59.656;9.666;2023-04-24T04:34:18;4.70;99.90
21580;DHT22;10951;59.656;9.666;2023-04-24T04:36:46;4.70;99.90
21580;DHT22;10951;59.656;9.666;2023-04-24T04:39:24;4.70;99.90
21580;DHT22;10951;59.656;9.666;2023-04-24T04:41:56;4.70;99.90
21580;DHT22;10951;59.656;9.666;2023-04-24T04:44:30;4.60;99.90
21580;DHT22;10951;59.656;9.666;2023-04-24T04:46:58;4.60;99.90
21580;DHT22;10951;59.656;9.666;2023-04-24T04:49:29;4.60;99.90
21580;DHT22;10951;59.656;9.666;2023-04-24T04:51:57;4.60;99.90
21580;DHT22;10951;59.656;9.666;2023-04-24T04:54:25;4.60;99.90
21580;DHT22;10951;59.656;9.666;2023-04-24T04:56:53;4.60;99.90
21580;DHT22;10951;59.656;9.666;2023-04-24T04:59:20;4.60;99.90
21580;DHT22;10951;59.656;9.666;2023-04-24T05:01:51;4.50;99.90
21580;DHT22;10951;59.656;9.666;2023-04-24T05:04:20;4.40;99.90
21580;DHT22;10951;59.656;9.666;2023-04-24T05:06:47;4.40;99.90
21580;DHT22;10951;59.656;9.666;2023-04-24T05:09:14;4.30;99.90
21580;DHT22;10951;59.656;9.666;2023-04-24T05:11:50;4.30;99.90
21580;DHT22;10951;59.656;9.666;2023-04-24T05:14:17;4.20;99.90
21580;DHT22;10951;59.656;9.666;2023-04-24T05:16:45;4.20;99.90
21580;DHT22;10951;59.656;9.666;2023-04-24T05:19:13;4.20;99.90
21580;DHT22;10951;59.656;9.666;2023-04-24T05:21:41;4.20;99.90
21580;DHT22;10951;59.656;9.666;2023-04-24T05:24:09;4.20;99.90
21580;DHT22;10951;59.656;9.666;2023-04-24T05:27:02;4.10;99.90
21580;DHT22;10951;59.656;9.666;2023-04-24T05:29:35;4.10;99.90
21580;DHT22;10951;59.656;9.666;2023-04-24T05:32:03;4.10;99.90
21580;DHT22;10951;59.656;9.666;2023-04-24T05:34:31;4.10;99.90
21580;DHT22;10951;59.656;9.666;2023-04-24T05:36:58;4.00;99.90
21580;DHT22;10951;59.656;9.666;2023-04-24T05:39:25;4.00;99.90
21580;DHT22;10951;59.656;9.666;2023-04-24T05:41:53;3.90;99.90
21580;DHT22;10951;59.656;9.666;2023-04-24T05:44:20;3.90;99.90
21580;DHT22;10951;59.656;9.666;2023-04-24T05:46:47;3.90;99.90
21580;DHT22;10951;59.656;9.666;2023-04-24T05:49:15;3.90;99.90
21580;DHT22;10951;59.656;9.666;2023-04-24T05:51:42;3.80;99.90
21580;DHT22;10951;59.656;9.666;2023-04-24T05:54:09;3.80;99.90
21580;DHT22;10951;59.656;9.666;2023-04-24T05:56:39;3.70;99.90
21580;DHT22;10951;59.656;9.666;2023-04-24T05:59:10;3.70;99.90
21580;DHT22;10951;59.656;9.666;2023-04-24T06:01:37;3.70;99.90
21580;DHT22;10951;59.656;9.666;2023-04-24T06:04:11;3.70;99.90
21580;DHT22;10951;59.656;9.666;2023-04-24T06:06:40;3.70;99.90
21580;DHT22;10951;59.656;9.666;2023-04-24T06:09:08;3.70;99.90
21580;DHT22;10951;59.656;9.666;2023-04-24T06:11:34;3.60;99.90
21580;DHT22;10951;59.656;9.666;2023-04-24T06:14:02;3.60;99.90
21580;DHT22;10951;59.656;9.666;2023-04-24T06:16:39;3.70;99.90
21580;DHT22;10951;59.656;9.666;2023-04-24T06:19:27;3.70;99.90
21580;DHT22;10951;59.656;9.666;2023-04-24T06:21:54;3.60;99.90
21580;DHT22;10951;59.656;9.666;2023-04-24T06:24:21;3.60;99.90
21580;DHT22;10951;59.656;9.666;2023-04-24T06:26:48;3.60;99.90
21580;DHT22;10951;59.656;9.666;2023-04-24T06:29:15;3.60;99.90
21580;DHT22;10951;59.656;9.666;2023-04-24T06:31:42;3.60;99.90
21580;DHT22;10951;59.656;9.666;2023-04-24T06:34:09;3.60;99.90
21580;DHT22;10951;59.656;9.666;2023-04-24T06:36:36;3.50;99.90
21580;DHT22;10951;59.656;9.666;2023-04-24T06:39:03;3.50;99.90
21580;DHT22;10951;59.656;9.666;2023-04-24T06:41:30;3.50;99.90
21580;DHT22;10951;59.656;9.666;2023-04-24T06:43:57;3.40;99.90
21580;DHT22;10951;59.656;9.666;2023-04-24T06:46:24;3.40;99.90
21580;DHT22;10951;59.656;9.666;2023-04-24T06:48:53;3.40;99.90
21580;DHT22;10951;59.656;9.666;2023-04-24T06:51:23;3.40;99.90
21580;DHT22;10951;59.656;9.666;2023-04-24T06:53:51;3.40;99.90
21580;DHT22;10951;59.656;9.666;2023-04-24T06:56:18;3.40;99.90
21580;DHT22;10951;59.656;9.666;2023-04-24T06:58:45;3.30;99.90
21580;DHT22;10951;59.656;9.666;2023-04-24T07:01:12;3.30;99.90
21580;DHT22;10951;59.656;9.666;2023-04-24T07:03:39;3.30;99.90
21580;DHT22;10951;59.656;9.666;2023-04-24T07:06:06;3.30;99.90
21580;DHT22;10951;59.656;9.666;2023-04-24T07:08:33;3.30;99.90
21580;DHT22;10951;59.656;9.666;2023-04-24T07:11:00;3.30;99.90
21580;DHT22;10951;59.656;9.666;2023-04-24T07:13:27;3.30;99.90
21580;DHT22;10951;59.656;9.666;2023-04-24T07:15:54;3.30;99.90
21580;DHT22;10951;59.656;9.666;2023-04-24T07:18:23;3.30;99.90
21580;DHT22;10951;59.656;9.666;2023-04-24T07:20:50;3.30;99.90
21580;DHT22;10951;59.656;9.666;2023-04-24T07:23:17;3.20;99.90
21580;DHT22;10951;59.656;9.666;2023-04-24T07:25:44;3.20;99.90
21580;DHT22;10951;59.656;9.666;2023-04-24T07:28:11;3.20;99.90
21580;DHT22;10951;59.656;9.666;2023-04-24T07:30:38;3.30;99.90
21580;DHT22;10951;59.656;9.666;2023-04-24T07:33:05;3.30;99.90
21580;DHT22;10951;59.656;9.666;2023-04-24T07:35:33;3.40;99.90
21580;DHT22;10951;59.656;9.666;2023-04-24T07:38:00;3.40;99.90
21580;DHT22;10951;59.656;9.666;2023-04-24T07:40:28;3.40;99.90
21580;DHT22;10951;59.656;9.666;2023-04-24T07:42:54;3.40;99.90
21580;DHT22;10951;59.656;9.666;2023-04-24T07:45:21;3.30;99.90
21580;DHT22;10951;59.656;9.666;2023-04-24T07:47:50;3.40;99.90
21580;DHT22;10951;59.656;9.666;2023-04-24T07:50:17;3.40;99.90
21580;DHT22;10951;59.656;9.666;2023-04-24T07:52:44;3.40;99.90
21580;DHT22;10951;59.656;9.666;2023-04-24T07:55:10;3.30;99.90
21580;DHT22;10951;59.656;9.666;2023-04-24T07:57:37;3.30;99.90
21580;DHT22;10951;59.656;9.666;2023-04-24T08:00:04;3.30;99.90
21580;DHT22;10951;59.656;9.666;2023-04-24T08:02:37;3.30;99.90
21580;DHT22;10951;59.656;9.666;2023-04-24T08:05:04;3.30;99.90
21580;DHT22;10951;59.656;9.666;2023-04-24T08:07:31;3.30;99.90
21580;DHT22;10951;59.656;9.666;2023-04-24T08:09:58;3.20;99.90
21580;DHT22;10951;59.656;9.666;2023-04-24T08:12:26;3.20;99.90
21580;DHT22;10951;59.656;9.666;2023-04-24T08:14:55;3.30;99.90
21580;DHT22;10951;59.656;9.666;2023-04-24T08:17:22;3.20;99.90
21580;DHT22;10951;59.656;9.666;2023-04-24T08:19:48;3.20;99.90
21580;DHT22;10951;59.656;9.666;2023-04-24T08:22:17;3.10;99.90
21580;DHT22;10951;59.656;9.666;2023-04-24T08:24:44;3.00;99.90
21580;DHT22;10951;59.656;9.666;2023-04-24T08:27:11;3.00;99.90
21580;DHT22;10951;59.656;9.666;2023-04-24T08:29:38;2.90;99.90
21580;DHT22;10951;59.656;9.666;2023-04-24T08:32:04;2.90;99.90
21580;DHT22;10951;59.656;9.666;2023-04-24T08:34:32;2.90;99.90
21580;DHT22;10951;59.656;9.666;2023-04-24T08:36:59;2.80;99.90
21580;DHT22;10951;59.656;9.666;2023-04-24T08:39:26;2.70;99.90
21580;DHT22;10951;59.656;9.666;2023-04-24T08:41:53;2.70;99.90
21580;DHT22;10951;59.656;9.666;2023-04-24T08:44:20;2.70;99.90
21580;DHT22;10951;59.656;9.666;2023-04-24T08:46:47;2.70;99.90
21580;DHT22;10951;59.656;9.666;2023-04-24T08:49:15;2.70;99.90
21580;DHT22;10951;59.656;9.666;2023-04-24T08:51:44;2.70;99.90
21580;DHT22;10951;59.656;9.666;2023-04-24T08:54:13;2.70;99.90
21580;DHT22;10951;59.656;9.666;2023-04-24T08:56:40;2.70;99.90
21580;DHT22;10951;59.656;9.666;2023-04-24T08:59:10;2.70;99.90
21580;DHT22;10951;59.656;9.666;2023-04-24T09:01:37;2.70;99.90
21580;DHT22;10951;59.656;9.666;2023-04-24T09:04:04;2.70;99.90
21580;DHT22;10951;59.656;9.666;2023-04-24T09:06:31;2.60;99.90
21580;DHT22;10951;59.656;9.666;2023-04-24T09:09:01;2.70;99.90
21580;DHT22;10951;59.656;9.666;2023-04-24T09:11:30;2.70;99.90
21580;DHT22;10951;59.656;9.666;2023-04-24T09:13:57;2.70;99.90
21580;DHT22;10951;59.656;9.666;2023-04-24T09:16:25;2.70;99.90
21580;DHT22;10951;59.656;9.666;2023-04-24T09:18:52;2.60;99.90
21580;DHT22;10951;59.656;9.666;2023-04-24T09:21:22;2.60;99.90
21580;DHT22;10951;59.656;9.666;2023-04-24T09:24:00;2.50;99.90
21580;DHT22;10951;59.656;9.666;2023-04-24T09:26:30;2.50;99.90
21580;DHT22;10951;59.656;9.666;2023-04-24T09:29:00;2.40;99.90
21580;DHT22;10951;59.656;9.666;2023-04-24T09:31:28;2.40;99.90
21580;DHT22;10951;59.656;9.666;2023-04-24T09:33:57;2.50;99.90
21580;DHT22;10951;59.656;9.666;2023-04-24T09:39:08;2.60;99.90
21580;DHT22;10951;59.656;9.666;2023-04-24T09:44:11;2.60;99.90
21580;DHT22;10951;59.656;9.666;2023-04-24T09:46:39;2.60;99.90
21580;DHT22;10951;59.656;9.666;2023-04-24T09:49:10;2.60;99.90
21580;DHT22;10951;59.656;9.666;2023-04-24T09:51:40;2.60;99.90
21580;DHT22;10951;59.656;9.666;2023-04-24T09:54:17;2.60;99.90
21580;DHT22;10951;59.656;9.666;2023-04-24T09:56:47;2.60;99.90
21580;DHT22;10951;59.656;9.666;2023-04-24T09:59:14;2.60;99.90
21580;DHT22;10951;59.656;9.666;2023-04-24T10:01:41;2.60;99.90
21580;DHT22;10951;59.656;9.666;2023-04-24T10:04:18;2.50;99.90
21580;DHT22;10951;59.656;9.666;2023-04-24T10:06:46;2.50;99.90
21580;DHT22;10951;59.656;9.666;2023-04-24T10:09:14;2.40;99.90
21580;DHT22;10951;59.656;9.666;2023-04-24T10:11:42;2.40;99.90
21580;DHT22;10951;59.656;9.666;2023-04-24T10:14:11;2.40;99.90
21580;DHT22;10951;59.656;9.666;2023-04-24T10:16:39;2.30;99.90
21580;DHT22;10951;59.656;9.666;2023-04-24T10:19:07;2.30;99.90
21580;DHT22;10951;59.656;9.666;2023-04-24T10:21:34;2.30;99.90
21580;DHT22;10951;59.656;9.666;2023-04-24T10:24:02;2.20;99.90
21580;DHT22;10951;59.656;9.666;2023-04-24T10:26:33;2.30;99.90
21580;DHT22;10951;59.656;9.666;2023-04-24T10:29:01;2.30;99.90
21580;DHT22;10951;59.656;9.666;2023-04-24T10:31:30;2.40;99.90
21580;DHT22;10951;59.656;9.666;2023-04-24T10:33:58;2.40;99.90
21580;DHT22;10951;59.656;9.666;2023-04-24T10:36:25;2.40;99.90
21580;DHT22;10951;59.656;9.666;2023-04-24T10:38:54;2.40;99.90
21580;DHT22;10951;59.656;9.666;2023-04-24T10:41:22;2.30;99.90
21580;DHT22;10951;59.656;9.666;2023-04-24T10:44:08;2.30;99.90
21580;DHT22;10951;59.656;9.666;2023-04-24T10:46:37;2.30;99.90
21580;DHT22;10951;59.656;9.666;2023-04-24T10:49:05;2.30;99.90
21580;DHT22;10951;59.656;9.666;2023-04-24T10:51:43;2.30;99.90
21580;DHT22;10951;59.656;9.666;2023-04-24T10:54:24;2.40;99.90
21580;DHT22;10951;59.656;9.666;2023-04-24T10:56:52;2.40;99.90
21580;DHT22;10951;59.656;9.666;2023-04-24T10:59:29;2.50;99.90
21580;DHT22;10951;59.656;9.666;2023-04-24T11:02:01;2.50;99.90
21580;DHT22;10951;59.656;9.666;2023-04-24T11:04:29;2.50;99.90
21580;DHT22;10951;59.656;9.666;2023-04-24T11:06:56;2.50;99.90
21580;DHT22;10951;59.656;9.666;2023-04-24T11:09:25;2.50;99.90
21580;DHT22;10951;59.656;9.666;2023-04-24T11:12:02;2.40;99.90
21580;DHT22;10951;59.656;9.666;2023-04-24T11:14:29;2.40;99.90
21580;DHT22;10951;59.656;9.666;2023-04-24T11:16:56;2.40;99.90
21580;DHT22;10951;59.656;9.666;2023-04-24T11:19:26;2.40;99.90
21580;DHT22;10951;59.656;9.666;2023-04-24T11:22:02;2.40;99.90
21580;DHT22;10951;59.656;9.666;2023-04-24T11:24:30;2.40;99.90
21580;DHT22;10951;59.656;9.666;2023-04-24T11:26:58;2.40;99.90
21580;DHT22;10951;59.656;9.666;2023-04-24T11:29:42;2.40;99.90
21580;DHT22;10951;59.656;9.666;2023-04-24T11:34:46;2.40;99.90
21580;DHT22;10951;59.656;9.666;2023-04-24T11:37:14;2.40;99.90
21580;DHT22;10951;59.656;9.666;2023-04-24T11:39:41;2.40;99.90
21580;DHT22;10951;59.656;9.666;2023-04-24T11:42:09;2.50;99.90
21580;DHT22;10951;59.656;9.666;2023-04-24T11:44:36;2.50;99.90
21580;DHT22;10951;59.656;9.666;2023-04-24T11:47:04;2.50;99.90
21580;DHT22;10951;59.656;9.666;2023-04-24T11:49:31;2.50;99.90
21580;DHT22;10951;59.656;9.666;2023-04-24T11:52:01;2.50;99.90
21580;DHT22;10951;59.656;9.666;2023-04-24T11:54:28;2.50;99.90
21580;DHT22;10951;59.656;9.666;2023-04-24T11:56:56;2.50;99.90
21580;DHT22;10951;59.656;9.666;2023-04-24T11:59:23;2.50;99.90
21580;DHT22;10951;59.656;9.666;2023-04-24T12:01:49;2.50;99.90
21580;DHT22;10951;59.656;9.666;2023-04-24T12:04:17;2.50;99.90
21580;DHT22;10951;59.656;9.666;2023-04-24T12:07:01;2.50;99.90
21580;DHT22;10951;59.656;9.666;2023-04-24T12:09:28;2.40;99.90
21580;DHT22;10951;59.656;9.666;2023-04-24T12:11:55;2.40;99.90
21580;DHT22;10951;59.656;9.666;2023-04-24T12:14:23;2.50;99.90
21580;DHT22;10951;59.656;9.666;2023-04-24T12:16:50;2.50;99.90
21580;DHT22;10951;59.656;9.666;2023-04-24T12:19:18;2.50;99.90
21580;DHT22;10951;59.656;9.666;2023-04-24T12:21:58;2.40;99.90
21580;DHT22;10951;59.656;9.666;2023-04-24T12:24:25;2.50;99.90
21580;DHT22;10951;59.656;9.666;2023-04-24T12:26:52;2.60;99.90
21580;DHT22;10951;59.656;9.666;2023-04-24T12:29:20;2.60;99.90
21580;DHT22;10951;59.656;9.666;2023-04-24T12:31:47;2.60;99.90
21580;DHT22;10951;59.656;9.666;2023-04-24T12:34:18;2.50;99.90
21580;DHT22;10951;59.656;9.666;2023-04-24T12:36:45;2.50;99.90
21580;DHT22;10951;59.656;9.666;2023-04-24T12:39:15;2.40;99.90
21580;DHT22;10951;59.656;9.666;2023-04-24T12:41:55;2.40;99.90
21580;DHT22;10951;59.656;9.666;2023-04-24T12:44:29;2.40;99.90
21580;DHT22;10951;59.656;9.666;2023-04-24T12:46:56;2.50;99.90
21580;DHT22;10951;59.656;9.666;2023-04-24T12:49:23;2.50;99.90
21580;DHT22;10951;59.656;9.666;2023-04-24T12:51:50;2.60;99.90
21580;DHT22;10951;59.656;9.666;2023-04-24T12:54:17;2.60;99.90
21580;DHT22;10951;59.656;9.666;2023-04-24T12:56:44;2.60;99.90
21580;DHT22;10951;59.656;9.666;2023-04-24T12:59:12;2.70;99.90
21580;DHT22;10951;59.656;9.666;2023-04-24T13:01:40;2.70;99.90
21580;DHT22;10951;59.656;9.666;2023-04-24T13:04:07;2.70;99.90
21580;DHT22;10951;59.656;9.666;2023-04-24T13:06:34;2.70;99.90
21580;DHT22;10951;59.656;9.666;2023-04-24T13:09:01;2.70;99.90
21580;DHT22;10951;59.656;9.666;2023-04-24T13:11:28;2.70;99.90
21580;DHT22;10951;59.656;9.666;2023-04-24T13:13:55;2.70;99.90
21580;DHT22;10951;59.656;9.666;2023-04-24T13:16:21;2.70;99.90
21580;DHT22;10951;59.656;9.666;2023-04-24T13:18:50;2.60;99.90
21580;DHT22;10951;59.656;9.666;2023-04-24T13:21:17;2.70;99.90
21580;DHT22;10951;59.656;9.666;2023-04-24T13:23:43;2.70;99.90
21580;DHT22;10951;59.656;9.666;2023-04-24T13:26:10;2.70;99.90
21580;DHT22;10951;59.656;9.666;2023-04-24T13:28:37;2.60;99.90
21580;DHT22;10951;59.656;9.666;2023-04-24T13:31:04;2.60;99.90
21580;DHT22;10951;59.656;9.666;2023-04-24T13:33:32;2.60;99.90
21580;DHT22;10951;59.656;9.666;2023-04-24T13:35:59;2.60;99.90
21580;DHT22;10951;59.656;9.666;2023-04-24T13:38:26;2.50;99.90
21580;DHT22;10951;59.656;9.666;2023-04-24T13:40:53;2.40;99.90
21580;DHT22;10951;59.656;9.666;2023-04-24T13:43:20;2.40;99.90
21580;DHT22;10951;59.656;9.666;2023-04-24T13:45:47;2.30;99.90
21580;DHT22;10951;59.656;9.666;2023-04-24T13:48:14;2.40;99.90
21580;DHT22;10951;59.656;9.666;2023-04-24T13:50:44;2.40;99.90
21580;DHT22;10951;59.656;9.666;2023-04-24T13:53:14;2.40;99.90
21580;DHT22;10951;59.656;9.666;2023-04-24T13:55:41;2.40;99.90
21580;DHT22;10951;59.656;9.666;2023-04-24T13:58:08;2.30;99.90
21580;DHT22;10951;59.656;9.666;2023-04-24T14:00:35;2.30;99.90
21580;DHT22;10951;59.656;9.666;2023-04-24T14:03:02;2.20;99.90
21580;DHT22;10951;59.656;9.666;2023-04-24T14:05:29;2.20;99.90
21580;DHT22;10951;59.656;9.666;2023-04-24T14:07:56;2.20;99.90
21580;DHT22;10951;59.656;9.666;2023-04-24T14:10:23;2.20;99.90
21580;DHT22;10951;59.656;9.666;2023-04-24T14:12:50;2.10;99.90
21580;DHT22;10951;59.656;9.666;2023-04-24T14:15:17;2.10;99.90
21580;DHT22;10951;59.656;9.666;2023-04-24T14:17:44;2.10;99.90
21580;DHT22;10951;59.656;9.666;2023-04-24T14:20:12;2.10;99.90
21580;DHT22;10951;59.656;9.666;2023-04-24T14:22:39;2.10;99.90
21580;DHT22;10951;59.656;9.666;2023-04-24T14:25:05;2.10;99.90
21580;DHT22;10951;59.656;9.666;2023-04-24T14:27:32;2.00;99.90
21580;DHT22;10951;59.656;9.666;2023-04-24T14:30:01;2.00;99.90
21580;DHT22;10951;59.656;9.666;2023-04-24T14:32:28;2.00;99.90
21580;DHT22;10951;59.656;9.666;2023-04-24T14:34:55;2.00;99.90
21580;DHT22;10951;59.656;9.666;2023-04-24T14:37:22;2.00;99.90
21580;DHT22;10951;59.656;9.666;2023-04-24T14:39:49;2.00;99.90
21580;DHT22;10951;59.656;9.666;2023-04-24T14:42:36;2.00;99.90
21580;DHT22;10951;59.656;9.666;2023-04-24T14:45:03;2.00;99.90
21580;DHT22;10951;59.656;9.666;2023-04-24T14:47:29;2.10;99.90
21580;DHT22;10951;59.656;9.666;2023-04-24T14:49:56;2.10;99.90
21580;DHT22;10951;59.656;9.666;2023-04-24T14:52:23;2.10;99.90
21580;DHT22;10951;59.656;9.666;2023-04-24T14:54:50;2.10;99.90
21580;DHT22;10951;59.656;9.666;2023-04-24T14:57:17;2.10;99.90
21580;DHT22;10951;59.656;9.666;2023-04-24T14:59:44;2.10;99.90
21580;DHT22;10951;59.656;9.666;2023-04-24T15:02:11;2.10;99.90
21580;DHT22;10951;59.656;9.666;2023-04-24T15:04:42;2.10;99.90
21580;DHT22;10951;59.656;9.666;2023-04-24T15:07:09;2.10;99.90
21580;DHT22;10951;59.656;9.666;2023-04-24T15:09:36;2.10;99.90
21580;DHT22;10951;59.656;9.666;2023-04-24T15:12:03;2.20;99.90
21580;DHT22;10951;59.656;9.666;2023-04-24T15:14:30;2.10;99.90
21580;DHT22;10951;59.656;9.666;2023-04-24T15:16:57;2.10;99.90
21580;DHT22;10951;59.656;9.666;2023-04-24T15:19:24;2.10;99.90
21580;DHT22;10951;59.656;9.666;2023-04-24T15:21:50;2.10;99.90
21580;DHT22;10951;59.656;9.666;2023-04-24T15:24:17;2.10;99.90
21580;DHT22;10951;59.656;9.666;2023-04-24T15:26:44;2.00;99.90
21580;DHT22;10951;59.656;9.666;2023-04-24T15:29:11;2.00;99.90
21580;DHT22;10951;59.656;9.666;2023-04-24T15:31:38;1.90;99.90
21580;DHT22;10951;59.656;9.666;2023-04-24T15:34:06;1.90;99.90
21580;DHT22;10951;59.656;9.666;2023-04-24T15:36:33;2.00;99.90
21580;DHT22;10951;59.656;9.666;2023-04-24T15:39:01;2.10;99.90
21580;DHT22;10951;59.656;9.666;2023-04-24T15:41:31;2.00;99.90
21580;DHT22;10951;59.656;9.666;2023-04-24T15:43:58;2.00;99.90
21580;DHT22;10951;59.656;9.666;2023-04-24T15:46:25;2.00;99.90
21580;DHT22;10951;59.656;9.666;2023-04-24T15:48:55;2.00;99.90
21580;DHT22;10951;59.656;9.666;2023-04-24T15:51:22;2.00;99.90
21580;DHT22;10951;59.656;9.666;2023-04-24T15:53:50;2.00;99.90
21580;DHT22;10951;59.656;9.666;2023-04-24T15:56:16;2.00;99.90
21580;DHT22;10951;59.656;9.666;2023-04-24T15:58:43;2.00;99.90